sensor_id;sensor_type;location;lat;lon;timestamp;P1;durP1;ratioP1;P2;durP2;ratioP2
14007;SDS011;61651;45.508;12.232;2023-03-16T00:02:25;3.87;;;3.30;;
14007;SDS011;61651;45.508;12.232;2023-03-16T00:05:27;5.20;;;4.10;;
14007;SDS011;61651;45.508;12.232;2023-03-16T00:08:29;5.93;;;4.63;;
14007;SDS011;61651;45.508;12.232;2023-03-16T00:11:31;7.17;;;4.37;;
14007;SDS011;61651;45.508;12.232;2023-03-16T00:14:33;4.53;;;3.90;;
14007;SDS011;61651;45.508;12.232;2023-03-16T00:17:36;5.57;;;3.87;;
14007;SDS011;61651;45.508;12.232;2023-03-16T00:20:38;6.83;;;4.63;;
14007;SDS011;61651;45.508;12.232;2023-03-16T00:23:40;5.03;;;4.53;;
14007;SDS011;61651;45.508;12.232;2023-03-16T00:26:42;5.50;;;4.53;;
14007;SDS011;61651;45.508;12.232;2023-03-16T00:29:44;6.33;;;4.00;;
14007;SDS011;61651;45.508;12.232;2023-03-16T00:32:49;6.10;;;4.70;;
14007;SDS011;61651;45.508;12.232;2023-03-16T00:35:52;5.30;;;4.03;;
14007;SDS011;61651;45.508;12.232;2023-03-16T00:39:01;4.60;;;4.10;;
14007;SDS011;61651;45.508;12.232;2023-03-16T00:42:04;3.97;;;3.57;;
14007;SDS011;61651;45.508;12.232;2023-03-16T00:45:07;6.40;;;3.97;;
14007;SDS011;61651;45.508;12.232;2023-03-16T00:48:12;4.80;;;4.30;;
14007;SDS011;61651;45.508;12.232;2023-03-16T00:51:15;4.50;;;4.10;;
14007;SDS011;61651;45.508;12.232;2023-03-16T00:54:18;5.97;;;4.90;;
14007;SDS011;61651;45.508;12.232;2023-03-16T00:57:22;7.20;;;4.63;;
14007;SDS011;61651;45.508;12.232;2023-03-16T01:00:24;11.60;;;5.90;;
14007;SDS011;61651;45.508;12.232;2023-03-16T01:03:28;12.33;;;6.30;;
14007;SDS011;61651;45.508;12.232;2023-03-16T01:06:30;9.13;;;5.50;;
14007;SDS011;61651;45.508;12.232;2023-03-16T01:09:32;10.77;;;6.00;;
14007;SDS011;61651;45.508;12.232;2023-03-16T01:12:35;8.90;;;6.00;;
14007;SDS011;61651;45.508;12.232;2023-03-16T01:15:38;8.23;;;5.00;;
14007;SDS011;61651;45.508;12.232;2023-03-16T01:18:41;6.17;;;4.90;;
14007;SDS011;61651;45.508;12.232;2023-03-16T01:21:43;6.33;;;5.10;;
14007;SDS011;61651;45.508;12.232;2023-03-16T01:24:45;6.60;;;4.57;;
14007;SDS011;61651;45.508;12.232;2023-03-16T01:27:47;7.13;;;4.67;;
14007;SDS011;61651;45.508;12.232;2023-03-16T01:30:49;5.50;;;4.73;;
14007;SDS011;61651;45.508;12.232;2023-03-16T01:33:54;6.73;;;5.17;;
14007;SDS011;61651;45.508;12.232;2023-03-16T01:36:56;6.47;;;4.60;;
14007;SDS011;61651;45.508;12.232;2023-03-16T01:39:58;8.27;;;4.90;;
14007;SDS011;61651;45.508;12.232;2023-03-16T01:43:01;5.73;;;5.07;;
14007;SDS011;61651;45.508;12.232;2023-03-16T01:46:14;7.37;;;4.70;;
14007;SDS011;61651;45.508;12.232;2023-03-16T01:49:21;6.50;;;4.67;;
14007;SDS011;61651;45.508;12.232;2023-03-16T01:52:26;6.23;;;4.60;;
14007;SDS011;61651;45.508;12.232;2023-03-16T01:55:32;4.77;;;3.73;;
14007;SDS011;61651;45.508;12.232;2023-03-16T01:58:35;4.60;;;4.00;;
14007;SDS011;61651;45.508;12.232;2023-03-16T02:01:38;5.47;;;3.93;;
14007;SDS011;61651;45.508;12.232;2023-03-16T02:04:43;5.43;;;3.97;;
14007;SDS011;61651;45.508;12.232;2023-03-16T02:07:51;5.77;;;4.33;;
14007;SDS011;61651;45.508;12.232;2023-03-16T02:10:57;6.17;;;4.60;;
14007;SDS011;61651;45.508;12.232;2023-03-16T02:14:01;7.13;;;4.43;;
14007;SDS011;61651;45.508;12.232;2023-03-16T02:17:09;7.50;;;5.00;;
14007;SDS011;61651;45.508;12.232;2023-03-16T02:20:16;5.77;;;4.60;;
14007;SDS011;61651;45.508;12.232;2023-03-16T02:23:27;5.23;;;4.40;;
14007;SDS011;61651;45.508;12.232;2023-03-16T02:26:32;5.33;;;4.67;;
14007;SDS011;61651;45.508;12.232;2023-03-16T02:33:13;5.10;;;4.40;;
14007;SDS011;61651;45.508;12.232;2023-03-16T02:36:17;4.30;;;3.90;;
14007;SDS011;61651;45.508;12.232;2023-03-16T02:39:20;7.30;;;4.57;;
14007;SDS011;61651;45.508;12.232;2023-03-16T02:42:22;5.83;;;4.80;;
14007;SDS011;61651;45.508;12.232;2023-03-16T02:45:28;3.87;;;3.57;;
14007;SDS011;61651;45.508;12.232;2023-03-16T02:48:35;5.80;;;3.73;;
14007;SDS011;61651;45.508;12.232;2023-03-16T02:51:44;6.97;;;4.30;;
14007;SDS011;61651;45.508;12.232;2023-03-16T02:54:46;6.23;;;4.50;;
14007;SDS011;61651;45.508;12.232;2023-03-16T02:57:48;4.97;;;4.13;;
14007;SDS011;61651;45.508;12.232;2023-03-16T03:00:52;6.07;;;4.20;;
14007;SDS011;61651;45.508;12.232;2023-03-16T03:03:54;4.87;;;4.10;;
14007;SDS011;61651;45.508;12.232;2023-03-16T03:06:56;4.67;;;4.07;;
14007;SDS011;61651;45.508;12.232;2023-03-16T03:10:04;7.13;;;3.93;;
14007;SDS011;61651;45.508;12.232;2023-03-16T03:13:07;5.83;;;4.47;;
14007;SDS011;61651;45.508;12.232;2023-03-16T03:16:10;4.63;;;3.73;;
14007;SDS011;61651;45.508;12.232;2023-03-16T03:19:12;4.10;;;3.70;;
14007;SDS011;61651;45.508;12.232;2023-03-16T03:22:14;4.73;;;3.90;;
14007;SDS011;61651;45.508;12.232;2023-03-16T03:25:18;3.53;;;3.23;;
14007;SDS011;61651;45.508;12.232;2023-03-16T03:28:21;5.10;;;3.83;;
14007;SDS011;61651;45.508;12.232;2023-03-16T03:31:24;5.00;;;3.33;;
14007;SDS011;61651;45.508;12.232;2023-03-16T03:34:26;5.20;;;3.77;;
14007;SDS011;61651;45.508;12.232;2023-03-16T03:37:28;3.83;;;3.27;;
14007;SDS011;61651;45.508;12.232;2023-03-16T03:40:30;4.97;;;3.50;;
14007;SDS011;61651;45.508;12.232;2023-03-16T03:43:32;5.80;;;3.97;;
14007;SDS011;61651;45.508;12.232;2023-03-16T03:46:36;4.10;;;3.57;;
14007;SDS011;61651;45.508;12.232;2023-03-16T03:49:38;4.30;;;3.63;;
14007;SDS011;61651;45.508;12.232;2023-03-16T03:52:40;4.30;;;3.87;;
14007;SDS011;61651;45.508;12.232;2023-03-16T03:55:42;3.83;;;3.43;;
14007;SDS011;61651;45.508;12.232;2023-03-16T03:58:44;5.70;;;3.73;;
14007;SDS011;61651;45.508;12.232;2023-03-16T04:01:47;3.97;;;3.50;;
14007;SDS011;61651;45.508;12.232;2023-03-16T04:04:50;4.87;;;3.60;;
14007;SDS011;61651;45.508;12.232;2023-03-16T04:07:52;4.47;;;3.83;;
14007;SDS011;61651;45.508;12.232;2023-03-16T04:10:56;4.07;;;3.37;;
14007;SDS011;61651;45.508;12.232;2023-03-16T04:13:58;6.03;;;3.67;;
14007;SDS011;61651;45.508;12.232;2023-03-16T04:17:01;4.60;;;3.63;;
14007;SDS011;61651;45.508;12.232;2023-03-16T04:20:04;4.63;;;3.67;;
14007;SDS011;61651;45.508;12.232;2023-03-16T04:23:12;4.70;;;4.17;;
14007;SDS011;61651;45.508;12.232;2023-03-16T04:26:15;4.50;;;3.83;;
14007;SDS011;61651;45.508;12.232;2023-03-16T04:29:17;4.90;;;3.63;;
14007;SDS011;61651;45.508;12.232;2023-03-16T04:32:21;10.63;;;4.13;;
14007;SDS011;61651;45.508;12.232;2023-03-16T04:35:25;4.67;;;3.60;;
14007;SDS011;61651;45.508;12.232;2023-03-16T04:38:27;4.50;;;3.70;;
14007;SDS011;61651;45.508;12.232;2023-03-16T04:41:30;5.53;;;3.80;;
14007;SDS011;61651;45.508;12.232;2023-03-16T04:44:32;4.40;;;4.00;;
14007;SDS011;61651;45.508;12.232;2023-03-16T04:47:35;4.87;;;3.73;;
14007;SDS011;61651;45.508;12.232;2023-03-16T04:50:37;4.57;;;4.10;;
14007;SDS011;61651;45.508;12.232;2023-03-16T04:53:40;4.20;;;3.80;;
14007;SDS011;61651;45.508;12.232;2023-03-16T04:56:43;5.90;;;4.00;;
14007;SDS011;61651;45.508;12.232;2023-03-16T04:59:45;4.20;;;3.77;;
14007;SDS011;61651;45.508;12.232;2023-03-16T05:02:49;9.53;;;4.83;;
14007;SDS011;61651;45.508;12.232;2023-03-16T05:05:51;5.03;;;4.47;;
14007;SDS011;61651;45.508;12.232;2023-03-16T05:08:53;5.27;;;4.00;;
14007;SDS011;61651;45.508;12.232;2023-03-16T05:11:55;5.77;;;4.40;;
14007;SDS011;61651;45.508;12.232;2023-03-16T05:14:57;5.83;;;4.47;;
14007;SDS011;61651;45.508;12.232;2023-03-16T05:18:01;4.40;;;4.00;;
14007;SDS011;61651;45.508;12.232;2023-03-16T05:21:03;4.93;;;3.77;;
14007;SDS011;61651;45.508;12.232;2023-03-16T05:24:05;4.27;;;3.77;;
14007;SDS011;61651;45.508;12.232;2023-03-16T05:27:07;5.03;;;3.93;;
14007;SDS011;61651;45.508;12.232;2023-03-16T05:30:10;5.00;;;3.77;;
14007;SDS011;61651;45.508;12.232;2023-03-16T05:33:15;5.17;;;3.93;;
14007;SDS011;61651;45.508;12.232;2023-03-16T05:36:17;5.40;;;3.87;;
14007;SDS011;61651;45.508;12.232;2023-03-16T05:39:19;5.30;;;3.87;;
14007;SDS011;61651;45.508;12.232;2023-03-16T05:42:22;4.63;;;3.63;;
14007;SDS011;61651;45.508;12.232;2023-03-16T05:45:26;4.67;;;4.27;;
14007;SDS011;61651;45.508;12.232;2023-03-16T05:48:29;5.90;;;3.80;;
14007;SDS011;61651;45.508;12.232;2023-03-16T05:51:31;4.30;;;3.87;;
14007;SDS011;61651;45.508;12.232;2023-03-16T05:54:33;4.90;;;3.93;;
14007;SDS011;61651;45.508;12.232;2023-03-16T05:57:35;4.03;;;3.47;;
14007;SDS011;61651;45.508;12.232;2023-03-16T06:00:38;4.93;;;4.00;;
14007;SDS011;61651;45.508;12.232;2023-03-16T06:03:41;4.30;;;3.70;;
14007;SDS011;61651;45.508;12.232;2023-03-16T06:06:43;7.67;;;3.90;;
14007;SDS011;61651;45.508;12.232;2023-03-16T06:09:45;3.47;;;3.10;;
14007;SDS011;61651;45.508;12.232;2023-03-16T06:12:47;5.20;;;3.67;;
14007;SDS011;61651;45.508;12.232;2023-03-16T06:15:49;5.10;;;4.60;;
14007;SDS011;61651;45.508;12.232;2023-03-16T06:18:52;6.27;;;3.37;;
14007;SDS011;61651;45.508;12.232;2023-03-16T06:21:55;5.53;;;3.90;;
14007;SDS011;61651;45.508;12.232;2023-03-16T06:24:57;5.33;;;4.00;;
14007;SDS011;61651;45.508;12.232;2023-03-16T06:28:00;8.67;;;4.70;;
14007;SDS011;61651;45.508;12.232;2023-03-16T06:31:02;6.33;;;4.80;;
14007;SDS011;61651;45.508;12.232;2023-03-16T06:34:05;6.53;;;4.40;;
14007;SDS011;61651;45.508;12.232;2023-03-16T06:37:07;4.67;;;3.80;;
14007;SDS011;61651;45.508;12.232;2023-03-16T06:40:10;5.53;;;4.13;;
14007;SDS011;61651;45.508;12.232;2023-03-16T06:43:12;4.40;;;3.77;;
14007;SDS011;61651;45.508;12.232;2023-03-16T06:46:14;5.30;;;3.80;;
14007;SDS011;61651;45.508;12.232;2023-03-16T06:49:18;4.53;;;3.90;;
14007;SDS011;61651;45.508;12.232;2023-03-16T06:52:20;7.30;;;4.23;;
14007;SDS011;61651;45.508;12.232;2023-03-16T06:55:23;4.77;;;3.73;;
14007;SDS011;61651;45.508;12.232;2023-03-16T06:58:24;5.33;;;4.20;;
14007;SDS011;61651;45.508;12.232;2023-03-16T07:01:26;4.53;;;3.70;;
14007;SDS011;61651;45.508;12.232;2023-03-16T07:04:30;6.90;;;4.40;;
14007;SDS011;61651;45.508;12.232;2023-03-16T07:07:33;5.50;;;3.83;;
14007;SDS011;61651;45.508;12.232;2023-03-16T07:10:35;4.17;;;3.77;;
14007;SDS011;61651;45.508;12.232;2023-03-16T07:13:37;3.70;;;3.40;;
14007;SDS011;61651;45.508;12.232;2023-03-16T07:16:39;3.53;;;3.23;;
14007;SDS011;61651;45.508;12.232;2023-03-16T07:19:42;4.87;;;3.17;;
14007;SDS011;61651;45.508;12.232;2023-03-16T07:22:44;2.97;;;2.67;;
14007;SDS011;61651;45.508;12.232;2023-03-16T07:25:46;3.67;;;2.40;;
14007;SDS011;61651;45.508;12.232;2023-03-16T07:28:48;3.23;;;2.90;;
14007;SDS011;61651;45.508;12.232;2023-03-16T07:31:50;3.13;;;2.60;;
14007;SDS011;61651;45.508;12.232;2023-03-16T07:34:54;2.50;;;2.20;;
14007;SDS011;61651;45.508;12.232;2023-03-16T07:37:57;2.50;;;2.30;;
14007;SDS011;61651;45.508;12.232;2023-03-16T07:40:59;3.30;;;2.43;;
14007;SDS011;61651;45.508;12.232;2023-03-16T07:44:01;2.57;;;2.37;;
14007;SDS011;61651;45.508;12.232;2023-03-16T07:47:03;2.93;;;2.20;;
14007;SDS011;61651;45.508;12.232;2023-03-16T07:50:08;3.27;;;2.30;;
14007;SDS011;61651;45.508;12.232;2023-03-16T07:53:12;2.33;;;2.03;;
14007;SDS011;61651;45.508;12.232;2023-03-16T07:56:14;2.87;;;2.20;;
14007;SDS011;61651;45.508;12.232;2023-03-16T07:59:16;3.10;;;2.43;;
14007;SDS011;61651;45.508;12.232;2023-03-16T08:02:20;2.97;;;2.10;;
14007;SDS011;61651;45.508;12.232;2023-03-16T08:05:23;2.20;;;2.00;;
14007;SDS011;61651;45.508;12.232;2023-03-16T08:08:25;2.87;;;1.90;;
14007;SDS011;61651;45.508;12.232;2023-03-16T08:11:27;2.57;;;1.97;;
14007;SDS011;61651;45.508;12.232;2023-03-16T08:14:30;2.17;;;1.70;;
14007;SDS011;61651;45.508;12.232;2023-03-16T08:17:33;2.20;;;2.00;;
14007;SDS011;61651;45.508;12.232;2023-03-16T08:20:37;1.93;;;1.83;;
14007;SDS011;61651;45.508;12.232;2023-03-16T08:23:39;2.17;;;1.97;;
14007;SDS011;61651;45.508;12.232;2023-03-16T08:26:43;2.00;;;1.80;;
14007;SDS011;61651;45.508;12.232;2023-03-16T08:29:45;2.13;;;1.73;;
14007;SDS011;61651;45.508;12.232;2023-03-16T08:32:47;2.03;;;1.80;;
14007;SDS011;61651;45.508;12.232;2023-03-16T08:35:51;1.73;;;1.60;;
14007;SDS011;61651;45.508;12.232;2023-03-16T08:38:53;2.63;;;1.70;;
14007;SDS011;61651;45.508;12.232;2023-03-16T08:41:55;1.87;;;1.77;;
14007;SDS011;61651;45.508;12.232;2023-03-16T08:44:57;1.97;;;1.57;;
14007;SDS011;61651;45.508;12.232;2023-03-16T08:47:59;1.40;;;1.30;;
14007;SDS011;61651;45.508;12.232;2023-03-16T08:51:03;2.57;;;1.57;;
14007;SDS011;61651;45.508;12.232;2023-03-16T08:54:05;1.77;;;1.40;;
14007;SDS011;61651;45.508;12.232;2023-03-16T08:57:08;1.50;;;1.40;;
14007;SDS011;61651;45.508;12.232;2023-03-16T09:00:11;1.40;;;1.30;;
14007;SDS011;61651;45.508;12.232;2023-03-16T09:03:14;1.50;;;1.40;;
14007;SDS011;61651;45.508;12.232;2023-03-16T09:06:17;2.40;;;1.30;;
14007;SDS011;61651;45.508;12.232;2023-03-16T09:09:21;2.27;;;1.50;;
14007;SDS011;61651;45.508;12.232;2023-03-16T09:12:23;1.20;;;1.10;;
14007;SDS011;61651;45.508;12.232;2023-03-16T09:15:25;2.77;;;1.23;;
14007;SDS011;61651;45.508;12.232;2023-03-16T09:18:28;1.20;;;1.10;;
14007;SDS011;61651;45.508;12.232;2023-03-16T09:21:31;1.30;;;1.20;;
14007;SDS011;61651;45.508;12.232;2023-03-16T09:24:35;1.30;;;1.20;;
14007;SDS011;61651;45.508;12.232;2023-03-16T09:27:37;2.08;;;1.75;;
14007;SDS011;61651;45.508;12.232;2023-03-16T09:30:40;1.57;;;1.20;;
14007;SDS011;61651;45.508;12.232;2023-03-16T09:33:42;2.13;;;1.33;;
14007;SDS011;61651;45.508;12.232;2023-03-16T09:36:45;4.40;;;1.77;;
14007;SDS011;61651;45.508;12.232;2023-03-16T09:39:47;2.30;;;1.60;;
14007;SDS011;61651;45.508;12.232;2023-03-16T09:42:52;1.50;;;1.40;;
14007;SDS011;61651;45.508;12.232;2023-03-16T09:46:05;1.50;;;1.40;;
14007;SDS011;61651;45.508;12.232;2023-03-16T09:49:13;1.40;;;1.30;;
14007;SDS011;61651;45.508;12.232;2023-03-16T09:52:22;1.33;;;1.23;;
14007;SDS011;61651;45.508;12.232;2023-03-16T09:55:30;2.47;;;2.20;;
14007;SDS011;61651;45.508;12.232;2023-03-16T09:58:34;1.40;;;1.30;;
14007;SDS011;61651;45.508;12.232;2023-03-16T10:01:39;1.47;;;1.37;;
14007;SDS011;61651;45.508;12.232;2023-03-16T10:04:48;2.70;;;1.50;;
14007;SDS011;61651;45.508;12.232;2023-03-16T10:08:00;2.57;;;1.20;;
14007;SDS011;61651;45.508;12.232;2023-03-16T10:11:17;1.35;;;1.25;;
14007;SDS011;61651;45.508;12.232;2023-03-16T10:14:29;1.40;;;1.30;;
14007;SDS011;61651;45.508;12.232;2023-03-16T10:17:39;1.20;;;1.15;;
14007;SDS011;61651;45.508;12.232;2023-03-16T10:20:45;1.43;;;1.30;;
14007;SDS011;61651;45.508;12.232;2023-03-16T10:23:48;2.33;;;1.30;;
14007;SDS011;61651;45.508;12.232;2023-03-16T10:26:54;1.45;;;1.35;;
14007;SDS011;61651;45.508;12.232;2023-03-16T10:30:00;1.40;;;1.30;;
14007;SDS011;61651;45.508;12.232;2023-03-16T10:33:08;3.42;;;1.25;;
14007;SDS011;61651;45.508;12.232;2023-03-16T10:36:23;2.23;;;1.30;;
14007;SDS011;61651;45.508;12.232;2023-03-16T10:39:35;2.55;;;2.10;;
14007;SDS011;61651;45.508;12.232;2023-03-16T10:42:42;1.17;;;1.10;;
14007;SDS011;61651;45.508;12.232;2023-03-16T10:45:45;1.88;;;1.15;;
14007;SDS011;61651;45.508;12.232;2023-03-16T10:48:51;2.15;;;1.35;;
14007;SDS011;61651;45.508;12.232;2023-03-16T10:51:59;1.30;;;1.20;;
14007;SDS011;61651;45.508;12.232;2023-03-16T10:55:08;1.38;;;1.17;;
14007;SDS011;61651;45.508;12.232;2023-03-16T10:58:21;1.85;;;1.17;;
14007;SDS011;61651;45.508;12.232;2023-03-16T11:01:24;1.20;;;1.02;;
14007;SDS011;61651;45.508;12.232;2023-03-16T11:04:29;1.25;;;1.15;;
14007;SDS011;61651;45.508;12.232;2023-03-16T11:07:32;1.02;;;1.02;;
14007;SDS011;61651;45.508;12.232;2023-03-16T11:10:38;2.92;;;1.42;;
14007;SDS011;61651;45.508;12.232;2023-03-16T11:13:44;1.50;;;1.40;;
14007;SDS011;61651;45.508;12.232;2023-03-16T11:16:48;1.45;;;1.10;;
14007;SDS011;61651;45.508;12.232;2023-03-16T11:19:56;1.77;;;1.40;;
14007;SDS011;61651;45.508;12.232;2023-03-16T11:23:01;2.97;;;1.17;;
14007;SDS011;61651;45.508;12.232;2023-03-16T11:26:06;1.45;;;1.35;;
14007;SDS011;61651;45.508;12.232;2023-03-16T11:29:18;1.88;;;1.05;;
14007;SDS011;61651;45.508;12.232;2023-03-16T11:32:25;1.65;;;1.33;;
14007;SDS011;61651;45.508;12.232;2023-03-16T11:35:33;2.67;;;1.40;;
14007;SDS011;61651;45.508;12.232;2023-03-16T11:38:44;3.05;;;1.15;;
14007;SDS011;61651;45.508;12.232;2023-03-16T11:41:58;1.65;;;1.40;;
14007;SDS011;61651;45.508;12.232;2023-03-16T11:45:13;1.73;;;1.30;;
14007;SDS011;61651;45.508;12.232;2023-03-16T11:48:21;2.10;;;1.50;;
14007;SDS011;61651;45.508;12.232;2023-03-16T11:51:32;1.80;;;1.20;;
14007;SDS011;61651;45.508;12.232;2023-03-16T11:54:41;3.33;;;1.60;;
14007;SDS011;61651;45.508;12.232;2023-03-16T11:57:56;1.40;;;1.10;;
14007;SDS011;61651;45.508;12.232;2023-03-16T12:01:07;30.13;;;11.07;;
14007;SDS011;61651;45.508;12.232;2023-03-16T12:04:21;23.90;;;8.02;;
14007;SDS011;61651;45.508;12.232;2023-03-16T12:07:36;33.05;;;10.77;;
14007;SDS011;61651;45.508;12.232;2023-03-16T12:10:47;9.82;;;5.65;;
14007;SDS011;61651;45.508;12.232;2023-03-16T12:14:04;7.93;;;3.58;;
14007;SDS011;61651;45.508;12.232;2023-03-16T12:17:14;3.50;;;2.08;;
14007;SDS011;61651;45.508;12.232;2023-03-16T12:20:21;4.53;;;2.58;;
14007;SDS011;61651;45.508;12.232;2023-03-16T12:23:28;2.92;;;2.13;;
14007;SDS011;61651;45.508;12.232;2023-03-16T12:26:34;13.57;;;7.30;;
14007;SDS011;61651;45.508;12.232;2023-03-16T12:29:43;5.80;;;3.45;;
14007;SDS011;61651;45.508;12.232;2023-03-16T12:32:56;1.98;;;1.80;;
14007;SDS011;61651;45.508;12.232;2023-03-16T12:36:12;2.25;;;2.00;;
14007;SDS011;61651;45.508;12.232;2023-03-16T12:39:41;2.58;;;2.00;;
14007;SDS011;61651;45.508;12.232;2023-03-16T12:43:22;2.88;;;1.80;;
14007;SDS011;61651;45.508;12.232;2023-03-16T12:46:38;2.72;;;1.73;;
14007;SDS011;61651;45.508;12.232;2023-03-16T12:49:50;2.33;;;1.27;;
14007;SDS011;61651;45.508;12.232;2023-03-16T12:52:52;1.40;;;1.30;;
14007;SDS011;61651;45.508;12.232;2023-03-16T12:55:54;1.60;;;1.50;;
14007;SDS011;61651;45.508;12.232;2023-03-16T12:58:57;2.35;;;1.77;;
14007;SDS011;61651;45.508;12.232;2023-03-16T13:02:02;2.67;;;1.45;;
14007;SDS011;61651;45.508;12.232;2023-03-16T13:05:08;2.35;;;1.85;;
14007;SDS011;61651;45.508;12.232;2023-03-16T13:08:13;2.15;;;1.88;;
14007;SDS011;61651;45.508;12.232;2023-03-16T13:11:16;1.92;;;1.63;;
14007;SDS011;61651;45.508;12.232;2023-03-16T13:14:35;4.88;;;1.63;;
14007;SDS011;61651;45.508;12.232;2023-03-16T13:17:41;3.22;;;1.90;;
14007;SDS011;61651;45.508;12.232;2023-03-16T13:20:48;3.00;;;1.50;;
14007;SDS011;61651;45.508;12.232;2023-03-16T13:23:56;1.45;;;1.30;;
14007;SDS011;61651;45.508;12.232;2023-03-16T13:27:01;2.50;;;2.00;;
14007;SDS011;61651;45.508;12.232;2023-03-16T13:30:14;4.07;;;1.65;;
14007;SDS011;61651;45.508;12.232;2023-03-16T13:33:22;2.55;;;1.60;;
14007;SDS011;61651;45.508;12.232;2023-03-16T13:36:26;3.22;;;1.65;;
14007;SDS011;61651;45.508;12.232;2023-03-16T13:39:30;2.95;;;1.83;;
14007;SDS011;61651;45.508;12.232;2023-03-16T13:42:33;2.33;;;1.70;;
14007;SDS011;61651;45.508;12.232;2023-03-16T13:45:36;2.60;;;1.45;;
14007;SDS011;61651;45.508;12.232;2023-03-16T13:48:40;5.40;;;1.88;;
14007;SDS011;61651;45.508;12.232;2023-03-16T13:51:42;1.48;;;1.38;;
14007;SDS011;61651;45.508;12.232;2023-03-16T13:54:46;3.22;;;1.48;;
14007;SDS011;61651;45.508;12.232;2023-03-16T13:57:50;2.38;;;1.50;;
14007;SDS011;61651;45.508;12.232;2023-03-16T14:00:56;2.38;;;1.48;;
14007;SDS011;61651;45.508;12.232;2023-03-16T14:04:02;1.83;;;1.20;;
14007;SDS011;61651;45.508;12.232;2023-03-16T14:07:13;3.25;;;1.98;;
14007;SDS011;61651;45.508;12.232;2023-03-16T14:10:17;1.75;;;1.30;;
14007;SDS011;61651;45.508;12.232;2023-03-16T14:13:21;1.70;;;1.42;;
14007;SDS011;61651;45.508;12.232;2023-03-16T14:16:26;2.22;;;1.65;;
14007;SDS011;61651;45.508;12.232;2023-03-16T14:19:33;2.03;;;1.52;;
14007;SDS011;61651;45.508;12.232;2023-03-16T14:22:41;4.50;;;1.60;;
14007;SDS011;61651;45.508;12.232;2023-03-16T14:25:43;1.83;;;1.38;;
14007;SDS011;61651;45.508;12.232;2023-03-16T14:28:55;2.78;;;1.25;;
14007;SDS011;61651;45.508;12.232;2023-03-16T14:31:58;1.90;;;1.70;;
14007;SDS011;61651;45.508;12.232;2023-03-16T14:35:08;4.47;;;1.90;;
14007;SDS011;61651;45.508;12.232;2023-03-16T14:38:17;1.75;;;1.63;;
14007;SDS011;61651;45.508;12.232;2023-03-16T14:41:40;2.38;;;1.38;;
14007;SDS011;61651;45.508;12.232;2023-03-16T14:44:44;2.78;;;1.60;;
14007;SDS011;61651;45.508;12.232;2023-03-16T14:47:48;1.50;;;1.40;;
14007;SDS011;61651;45.508;12.232;2023-03-16T14:50:55;3.92;;;1.73;;
14007;SDS011;61651;45.508;12.232;2023-03-16T14:53:58;2.63;;;1.60;;
14007;SDS011;61651;45.508;12.232;2023-03-16T14:57:01;2.63;;;1.70;;
14007;SDS011;61651;45.508;12.232;2023-03-16T15:00:05;4.60;;;1.40;;
14007;SDS011;61651;45.508;12.232;2023-03-16T15:03:10;1.70;;;1.60;;
14007;SDS011;61651;45.508;12.232;2023-03-16T15:06:17;2.80;;;1.50;;
14007;SDS011;61651;45.508;12.232;2023-03-16T15:12:43;4.03;;;1.80;;
14007;SDS011;61651;45.508;12.232;2023-03-16T15:15:53;1.70;;;1.60;;
14007;SDS011;61651;45.508;12.232;2023-03-16T15:18:54;4.85;;;1.67;;
14007;SDS011;61651;45.508;12.232;2023-03-16T15:21:58;3.35;;;1.48;;
14007;SDS011;61651;45.508;12.232;2023-03-16T15:25:04;3.03;;;1.60;;
14007;SDS011;61651;45.508;12.232;2023-03-16T15:28:20;5.35;;;1.50;;
14007;SDS011;61651;45.508;12.232;2023-03-16T15:31:23;2.50;;;1.70;;
14007;SDS011;61651;45.508;12.232;2023-03-16T15:34:27;2.78;;;1.67;;
14007;SDS011;61651;45.508;12.232;2023-03-16T15:37:31;2.97;;;1.67;;
14007;SDS011;61651;45.508;12.232;2023-03-16T15:40:32;3.25;;;1.70;;
14007;SDS011;61651;45.508;12.232;2023-03-16T15:43:36;2.72;;;1.90;;
14007;SDS011;61651;45.508;12.232;2023-03-16T15:46:39;8.05;;;1.77;;
14007;SDS011;61651;45.508;12.232;2023-03-16T15:49:41;3.80;;;1.50;;
14007;SDS011;61651;45.508;12.232;2023-03-16T15:52:45;3.88;;;1.70;;
14007;SDS011;61651;45.508;12.232;2023-03-16T15:55:50;3.53;;;1.75;;
14007;SDS011;61651;45.508;12.232;2023-03-16T15:58:58;3.30;;;1.70;;
14007;SDS011;61651;45.508;12.232;2023-03-16T16:02:07;1.63;;;1.30;;
14007;SDS011;61651;45.508;12.232;2023-03-16T16:05:24;2.53;;;1.80;;
14007;SDS011;61651;45.508;12.232;2023-03-16T16:08:28;4.78;;;1.80;;
14007;SDS011;61651;45.508;12.232;2023-03-16T16:11:30;1.60;;;1.48;;
14007;SDS011;61651;45.508;12.232;2023-03-16T16:14:32;6.53;;;1.45;;
14007;SDS011;61651;45.508;12.232;2023-03-16T16:17:34;2.97;;;1.83;;
14007;SDS011;61651;45.508;12.232;2023-03-16T16:20:36;2.55;;;1.60;;
14007;SDS011;61651;45.508;12.232;2023-03-16T16:23:39;6.10;;;2.03;;
14007;SDS011;61651;45.508;12.232;2023-03-16T16:26:42;1.85;;;1.73;;
14007;SDS011;61651;45.508;12.232;2023-03-16T16:29:47;2.13;;;1.50;;
14007;SDS011;61651;45.508;12.232;2023-03-16T16:32:49;1.65;;;1.52;;
14007;SDS011;61651;45.508;12.232;2023-03-16T16:35:52;2.67;;;1.70;;
14007;SDS011;61651;45.508;12.232;2023-03-16T16:38:56;2.90;;;1.48;;
14007;SDS011;61651;45.508;12.232;2023-03-16T16:41:59;3.55;;;1.65;;
14007;SDS011;61651;45.508;12.232;2023-03-16T16:45:01;1.88;;;1.67;;
14007;SDS011;61651;45.508;12.232;2023-03-16T16:48:04;1.30;;;1.20;;
14007;SDS011;61651;45.508;12.232;2023-03-16T16:51:30;2.90;;;1.60;;
14007;SDS011;61651;45.508;12.232;2023-03-16T16:54:34;3.03;;;2.13;;
14007;SDS011;61651;45.508;12.232;2023-03-16T16:57:36;1.50;;;1.40;;
14007;SDS011;61651;45.508;12.232;2023-03-16T17:00:38;2.28;;;1.45;;
14007;SDS011;61651;45.508;12.232;2023-03-16T17:03:43;1.90;;;1.52;;
14007;SDS011;61651;45.508;12.232;2023-03-16T17:06:45;2.97;;;1.83;;
14007;SDS011;61651;45.508;12.232;2023-03-16T17:09:48;2.55;;;1.63;;
14007;SDS011;61651;45.508;12.232;2023-03-16T17:12:51;4.20;;;1.67;;
14007;SDS011;61651;45.508;12.232;2023-03-16T17:15:55;4.03;;;1.65;;
14007;SDS011;61651;45.508;12.232;2023-03-16T17:18:57;2.38;;;1.48;;
14007;SDS011;61651;45.508;12.232;2023-03-16T17:21:59;3.00;;;1.77;;
14007;SDS011;61651;45.508;12.232;2023-03-16T17:25:03;5.32;;;1.35;;
14007;SDS011;61651;45.508;12.232;2023-03-16T17:28:07;2.85;;;1.80;;
14007;SDS011;61651;45.508;12.232;2023-03-16T17:31:10;1.73;;;1.20;;
14007;SDS011;61651;45.508;12.232;2023-03-16T17:34:18;3.72;;;1.67;;
14007;SDS011;61651;45.508;12.232;2023-03-16T17:37:22;3.78;;;1.90;;
14007;SDS011;61651;45.508;12.232;2023-03-16T17:40:30;2.45;;;1.55;;
14007;SDS011;61651;45.508;12.232;2023-03-16T17:43:33;3.10;;;1.58;;
14007;SDS011;61651;45.508;12.232;2023-03-16T17:46:35;5.22;;;1.60;;
14007;SDS011;61651;45.508;12.232;2023-03-16T17:49:37;1.75;;;1.38;;
14007;SDS011;61651;45.508;12.232;2023-03-16T17:52:40;1.92;;;1.50;;
14007;SDS011;61651;45.508;12.232;2023-03-16T17:55:43;4.57;;;1.85;;
14007;SDS011;61651;45.508;12.232;2023-03-16T17:58:46;1.42;;;1.33;;
14007;SDS011;61651;45.508;12.232;2023-03-16T18:01:50;2.85;;;1.55;;
14007;SDS011;61651;45.508;12.232;2023-03-16T18:04:52;1.75;;;1.48;;
14007;SDS011;61651;45.508;12.232;2023-03-16T18:07:54;4.85;;;1.98;;
14007;SDS011;61651;45.508;12.232;2023-03-16T18:11:02;2.70;;;1.50;;
14007;SDS011;61651;45.508;12.232;2023-03-16T18:14:08;4.28;;;1.65;;
14007;SDS011;61651;45.508;12.232;2023-03-16T18:17:21;2.77;;;1.60;;
14007;SDS011;61651;45.508;12.232;2023-03-16T18:20:28;2.45;;;1.48;;
14007;SDS011;61651;45.508;12.232;2023-03-16T18:23:32;2.30;;;1.73;;